Time;durP1;ratioP1;P1;durP2;ratioP2;P2;SDS_P1;SDS_P2;PMS_P1;PMS_P2;Temp;Humidity;BMP_temperature;BMP_pressure;BME280_temperature;BME280_humidity;BME280_pressure;Samples;Min_cycle;Max_cycle;Signal;HPM_P1;HPM_P2
2021/07/14 00:01:33;;;;;;;;;72.50;63.00;;;;;26.00;66.51;101218.53;6304740;22;10311;-78
2021/07/14 00:04:29;;;;;;;;;84.50;79.75;;;;;25.85;67.90;101215.06;6305551;22;9490;-78
2021/07/14 00:07:25;;;;;;;;;71.50;62.75;;;;;25.55;68.87;101215.00;6305804;22;9984;-77
2021/07/14 00:10:26;;;;;;;;;73.50;63.75;;;;;25.80;67.98;101209.06;6285234;22;9650;-78
2021/07/14 00:23:07;;;;;;;;;63.50;51.75;;;;;25.67;68.32;101214.44;6242367;23;8903;-78
2021/07/14 00:26:03;;;;;;;;;62.25;51.25;;;;;25.89;67.15;101207.31;6242811;23;8774;-78
2021/07/14 00:29:01;;;;;;;;;55.00;45.00;;;;;25.88;66.05;101219.88;6306615;22;8923;-78
2021/07/14 00:31:56;;;;;;;;;53.25;44.00;;;;;25.52;67.64;101219.44;6306427;22;8757;-78
2021/07/14 00:34:53;;;;;;;;;55.00;45.50;;;;;25.41;67.58;101213.13;6305782;22;8791;-78
2021/07/14 00:37:49;;;;;;;;;51.00;43.25;;;;;25.33;68.10;101218.03;6306213;22;8769;-78
2021/07/14 00:40:44;;;;;;;;;49.00;41.25;;;;;25.00;69.42;101215.88;6285701;22;8789;-78
2021/07/14 00:43:40;;;;;;;;;51.25;43.75;;;;;25.40;68.15;101214.34;6306324;22;8857;-79
2021/07/14 00:46:38;;;;;;;;;45.25;39.00;;;;;25.10;69.30;101221.50;6305827;22;8773;-78
2021/07/14 00:49:34;;;;;;;;;51.75;42.50;;;;;25.50;68.42;101222.72;6305960;22;9527;-78
2021/07/14 00:52:31;;;;;;;;;50.00;42.25;;;;;25.49;67.32;101220.31;6306026;22;8942;-78
2021/07/14 00:55:26;;;;;;;;;48.50;40.25;;;;;25.62;67.61;101212.88;6306272;22;8769;-78
2021/07/14 00:58:22;;;;;;;;;47.00;38.75;;;;;25.17;68.95;101231.94;6306924;22;8781;-78
2021/07/14 01:01:18;;;;;;;;;49.50;41.75;;;;;24.87;69.59;101232.56;6306125;22;8757;-78
2021/07/14 01:04:26;;;;;;;;;47.50;37.50;;;;;25.38;68.19;101230.91;6281079;22;8807;-78
2021/07/14 01:07:31;;;;;;;;;48.00;40.75;;;;;25.55;67.54;101235.63;6274531;22;8830;-78
2021/07/14 01:10:38;;;;;;;;;52.00;41.00;;;;;25.40;67.47;101231.31;6254870;22;8829;-78
2021/07/14 01:13:42;;;;;;;;;48.50;41.50;;;;;25.56;67.44;101233.59;6274798;22;8964;-78
2021/07/14 01:16:42;;;;;;;;;53.25;45.00;;;;;25.67;66.98;101240.72;6255417;22;8791;-78
2021/07/14 01:19:57;;;;;;;;;52.50;43.75;;;;;25.70;66.81;101237.06;6276191;22;9454;-78
2021/07/14 01:23:07;;;;;;;;;52.00;43.25;;;;;25.61;66.93;101235.94;6274941;22;8779;-78
2021/07/14 01:26:22;;;;;;;;;49.50;42.25;;;;;25.03;68.40;101232.03;6274415;22;8795;-78
2021/07/14 01:29:19;;;;;;;;;55.75;43.50;;;;;25.36;67.68;101231.34;6274642;22;8795;-78
2021/07/14 01:32:16;;;;;;;;;50.00;40.75;;;;;25.53;67.43;101235.22;6275197;22;9422;-78
2021/07/14 01:35:17;;;;;;;;;57.25;46.25;;;;;25.65;66.59;101233.88;6275519;22;8811;-78
2021/07/14 01:38:18;;;;;;;;;57.00;46.75;;;;;25.72;66.14;101237.47;6255077;22;8775;-78
2021/07/14 01:41:16;;;;;;;;;55.50;46.25;;;;;25.45;66.95;101236.53;6274329;22;9571;-78
2021/07/14 01:44:13;;;;;;;;;54.50;45.50;;;;;25.60;66.58;101235.16;6254689;22;8826;-78
2021/07/14 01:47:09;;;;;;;;;56.50;47.25;;;;;25.67;66.26;101235.06;6275441;22;8783;-78
2021/07/14 01:50:05;;;;;;;;;69.33;52.00;;;;;25.44;65.98;101232.09;6274717;22;8795;-78
2021/07/14 01:53:01;;;;;;;;;60.75;47.75;;;;;25.54;66.82;101241.72;6253812;22;9242;-78
2021/07/14 01:55:58;;;;;;;;;75.00;66.75;;;;;25.58;66.08;101240.44;6274171;22;8809;-79
2021/07/14 01:58:54;;;;;;;;;74.67;64.33;;;;;25.60;65.75;101246.47;6254227;22;10240;-79
2021/07/14 02:01:54;;;;;;;;;73.25;61.75;;;;;25.54;66.05;101245.34;6274103;22;10033;-78
2021/07/14 02:04:51;;;;;;;;;87.50;80.00;;;;;25.55;65.48;101241.28;6271058;22;9672;-79
2021/07/14 02:07:47;;;;;;;;;72.25;63.00;;;;;25.45;66.48;101236.53;6255758;22;10179;-78
2021/07/14 02:10:44;;;;;;;;;90.75;79.25;;;;;25.31;66.54;101231.81;6253903;22;9662;-79
2021/07/14 02:13:42;;;;;;;;;78.25;76.50;;;;;24.89;68.30;101236.59;6275347;22;10478;-79
2021/07/14 02:16:39;;;;;;;;;84.75;78.00;;;;;24.82;68.41;101239.47;6274107;22;10107;-80
2021/07/14 02:19:37;;;;;;;;;84.75;78.75;;;;;25.15;67.65;101246.53;6274336;22;11002;-80
2021/07/14 02:22:33;;;;;;;;;92.75;79.25;;;;;24.72;68.91;101250.88;6254045;22;10380;-79
2021/07/14 02:25:29;;;;;;;;;91.00;77.00;;;;;24.76;68.49;101245.97;6255151;22;10244;-79
2021/07/14 02:28:24;;;;;;;;;89.00;79.75;;;;;24.71;69.25;101246.44;6274084;22;10087;-79
2021/07/14 02:31:20;;;;;;;;;82.75;77.75;;;;;25.03;67.72;101249.84;6273191;22;10137;-79
2021/07/14 02:34:16;;;;;;;;;78.50;69.25;;;;;24.84;68.02;101248.34;6253922;22;10184;-79
2021/07/14 02:37:15;;;;;;;;;68.00;54.67;;;;;24.46;68.34;101252.22;6254005;22;9831;-80
2021/07/14 02:40:13;;;;;;;;;70.00;56.67;;;;;23.74;71.46;101254.53;6273690;22;9301;-79
2021/07/14 02:43:11;;;;;;;;;72.67;60.33;;;;;23.87;71.11;101243.63;6274418;22;9119;-79
2021/07/14 02:46:11;;;;;;;;;65.00;52.33;;;;;23.22;72.25;101246.53;6275036;22;9478;-79
2021/07/14 02:49:10;;;;;;;;;62.67;50.67;;;;;23.32;72.74;101247.75;6253812;22;9025;-79
2021/07/14 02:52:12;;;;;;;;;67.00;53.00;;;;;24.02;71.53;101245.97;6274047;22;9090;-80
2021/07/14 02:55:13;;;;;;;;;53.33;42.00;;;;;24.64;69.82;101250.91;6274151;22;9381;-79
2021/07/14 02:58:11;;;;;;;;;70.67;53.00;;;;;24.75;69.61;101250.03;6272982;22;9318;-80
2021/07/14 03:01:07;;;;;;;;;61.50;47.50;;;;;24.57;68.82;101250.97;6275534;22;9184;-79
2021/07/14 03:04:04;;;;;;;;;58.75;48.25;;;;;24.55;69.96;101246.94;6275013;22;8775;-80
2021/07/14 03:07:06;;;;;;;;;61.50;48.25;;;;;23.85;70.40;101252.50;6256461;22;8771;-80
2021/07/14 03:10:03;;;;;;;;;61.00;47.25;;;;;23.68;71.99;101250.53;6275623;22;8819;-80
2021/07/14 03:13:04;;;;;;;;;63.50;48.25;;;;;24.27;70.98;101260.00;6256623;22;8947;-80
2021/07/14 03:16:01;;;;;;;;;49.00;41.25;;;;;24.40;70.07;101257.53;6275927;22;8810;-79
2021/07/14 03:18:57;;;;;;;;;54.50;44.75;;;;;23.66;69.80;101259.41;6276368;22;9470;-79
2021/07/14 03:21:54;;;;;;;;;53.50;44.25;;;;;23.49;72.12;101249.75;6275992;22;9490;-80
2021/07/14 03:24:51;;;;;;;;;56.00;45.75;;;;;23.20;74.70;101250.97;6276388;22;8779;-79
2021/07/14 03:27:49;;;;;;;;;53.75;44.50;;;;;22.79;73.83;101256.19;6275421;22;8810;-80
2021/07/14 03:30:46;;;;;;;;;59.00;46.75;;;;;22.70;75.80;101263.03;6275420;22;8802;-79
2021/07/14 03:33:42;;;;;;;;;57.67;47.33;;;;;23.20;74.35;101259.44;6275444;22;8868;-79
2021/07/14 03:36:39;;;;;;;;;59.00;46.25;;;;;23.49;73.98;101263.03;6276660;22;8849;-79
2021/07/14 03:39:38;;;;;;;;;57.00;46.00;;;;;23.71;73.02;101272.31;6276476;22;9498;-78
2021/07/14 03:42:35;;;;;;;;;56.25;45.25;;;;;24.11;71.30;101268.13;6275939;22;8794;-79
2021/07/14 03:45:32;;;;;;;;;54.25;44.75;;;;;24.64;69.84;101269.91;6256081;22;8779;-78
2021/07/14 03:48:31;;;;;;;;;52.00;43.50;;;;;24.67;69.30;101272.72;6275207;22;8775;-79
2021/07/14 03:51:27;;;;;;;;;48.00;41.00;;;;;24.94;67.81;101275.75;6275332;22;8787;-78
2021/07/14 03:54:25;;;;;;;;;45.75;38.75;;;;;25.08;68.02;101282.56;6255188;22;8794;-78
2021/07/14 03:57:21;;;;;;;;;48.50;40.75;;;;;25.06;67.53;101282.97;6275672;22;8786;-79
2021/07/14 04:00:16;;;;;;;;;47.25;39.50;;;;;25.14;67.33;101283.72;6275177;22;8779;-78
2021/07/14 04:03:12;;;;;;;;;39.00;34.75;;;;;24.93;66.32;101287.50;6286319;22;8840;-78
2021/07/14 04:06:08;;;;;;;;;44.25;36.75;;;;;25.09;66.65;101284.97;6286966;22;9478;-78
2021/07/14 04:09:09;;;;;;;;;37.67;33.33;;;;;25.06;67.33;101282.97;6305992;22;8781;-78
2021/07/14 04:12:05;;;;;;;;;33.00;31.25;;;;;25.06;66.37;101291.47;6305894;22;8781;-79
2021/07/14 04:15:01;;;;;;;;;49.00;40.25;;;;;24.81;65.14;101290.81;6308112;22;8769;-78
2021/07/14 04:17:57;;;;;;;;;45.25;36.75;;;;;24.65;67.91;101294.94;6286735;22;8887;-78
2021/07/14 04:20:52;;;;;;;;;42.50;35.75;;;;;24.78;66.87;101286.78;6306732;22;8865;-79
2021/07/14 04:23:48;;;;;;;;;39.00;34.75;;;;;25.02;66.53;101295.53;6286112;22;9510;-78
2021/07/14 04:26:44;;;;;;;;;43.50;35.75;;;;;24.85;66.86;101288.78;6306189;22;8867;-79
2021/07/14 04:29:40;;;;;;;;;44.25;37.25;;;;;25.11;66.20;101290.22;6306016;22;8883;-78
2021/07/14 04:32:36;;;;;;;;;29.25;27.25;;;;;25.50;65.14;101290.69;6305632;22;8834;-78
2021/07/14 04:35:32;;;;;;;;;38.00;32.25;;;;;25.41;65.32;101293.19;6307118;22;8812;-78
2021/07/14 04:38:28;;;;;;;;;47.25;38.00;;;;;25.39;65.88;101303.34;6306319;22;8812;-79
2021/07/14 04:41:25;;;;;;;;;43.00;36.00;;;;;25.56;65.10;101301.56;6305698;22;8868;-77
2021/07/14 04:44:31;;;;;;;;;46.75;39.75;;;;;25.47;64.25;101302.03;6304711;22;8805;-78
2021/07/14 04:47:26;;;;;;;;;51.50;41.50;;;;;25.50;65.39;101296.34;6306546;22;8769;-79
2021/07/14 04:50:22;;;;;;;;;50.75;43.50;;;;;25.33;65.93;101294.47;6285171;22;8788;-79
2021/07/14 04:53:18;;;;;;;;;48.00;40.25;;;;;25.31;66.05;101298.97;6285908;22;8807;-79
2021/07/14 04:56:16;;;;;;;;;47.33;40.00;;;;;25.55;64.67;101297.94;6305919;22;8785;-78
2021/07/14 04:59:12;;;;;;;;;82.50;74.00;;;;;25.86;62.44;101300.88;6306092;22;8808;-78
2021/07/14 05:02:07;;;;;;;;;60.50;48.75;;;;;26.02;58.44;101309.59;6304378;22;10120;-78
2021/07/14 05:05:04;;;;;;;;;12.20;12.20;;;;;26.20;52.67;101304.50;6293159;22;8865;-78
2021/07/14 05:08:00;;;;;;;;;19.40;19.00;;;;;26.45;55.01;101295.69;6306766;22;8978;-78
2021/07/14 05:10:55;;;;;;;;;14.00;13.00;;;;;26.55;52.49;101300.44;6305724;22;8765;-78
2021/07/14 05:13:51;;;;;;;;;11.80;10.40;;;;;26.69;49.57;101292.97;6305816;22;8761;-78
2021/07/14 05:16:47;;;;;;;;;9.00;9.00;;;;;26.73;48.60;101302.22;6305787;22;8876;-78
2021/07/14 05:19:43;;;;;;;;;23.60;23.60;;;;;27.02;52.33;101302.59;6285205;22;8769;-78
2021/07/14 05:22:38;;;;;;;;;11.00;11.00;;;;;27.25;49.79;101299.81;6305603;22;8807;-76
2021/07/14 05:25:34;;;;;;;;;11.00;10.20;;;;;27.32;48.45;101296.03;6304901;22;8777;-76
2021/07/14 05:28:30;;;;;;;;;8.20;8.20;;;;;27.39;46.04;101296.72;6305126;22;9487;-76
2021/07/14 05:31:25;;;;;;;;;9.60;9.60;;;;;27.66;46.15;101298.66;6305562;22;8797;-76
2021/07/14 05:34:21;;;;;;;;;8.20;8.20;;;;;27.84;46.42;101302.03;6305809;22;8855;-76
2021/07/14 05:37:16;;;;;;;;;5.60;5.20;;;;;27.94;44.39;101292.47;6306204;22;9534;-77
2021/07/14 05:40:12;;;;;;;;;7.00;7.00;;;;;28.21;44.85;101288.66;6305779;22;8801;-78
2021/07/14 05:43:08;;;;;;;;;7.60;7.40;;;;;28.23;42.94;101289.06;6306693;22;8800;-77
2021/07/14 05:46:05;;;;;;;;;9.00;9.00;;;;;28.35;42.91;101296.94;6287726;22;8777;-78
2021/07/14 05:49:03;;;;;;;;;9.40;9.40;;;;;28.57;43.42;101302.97;6285665;22;8797;-78
2021/07/14 05:51:58;;;;;;;;;8.00;8.00;;;;;28.60;41.43;101301.25;6305560;22;8768;-77
2021/07/14 05:54:54;;;;;;;;;8.80;8.80;;;;;28.90;41.72;101306.69;6305319;22;8789;-77
2021/07/14 05:57:51;;;;;;;;;9.60;9.60;;;;;29.08;41.02;101304.22;6284957;22;8773;-77
2021/07/14 06:00:47;;;;;;;;;6.20;6.20;;;;;29.24;39.90;101314.03;6306177;22;8801;-77
2021/07/14 06:03:46;;;;;;;;;7.00;7.00;;;;;29.36;39.24;101307.59;6287540;22;8783;-77
2021/07/14 06:06:43;;;;;;;;;6.80;6.80;;;;;29.54;38.75;101307.97;6275629;22;8811;-77
2021/07/14 06:09:39;;;;;;;;;8.60;8.60;;;;;29.51;39.21;101306.00;6254186;22;8791;-78
2021/07/14 06:12:35;;;;;;;;;8.00;8.00;;;;;29.53;38.72;101309.22;6274350;22;8780;-78
2021/07/14 06:15:31;;;;;;;;;6.80;6.80;;;;;29.77;38.95;101309.81;6274527;22;8775;-78
2021/07/14 06:18:27;;;;;;;;;10.00;9.60;;;;;29.66;38.38;101311.31;6274309;22;9682;-79
2021/07/14 06:21:23;;;;;;;;;9.00;9.00;;;;;29.81;39.74;101304.78;6274427;22;8986;-77
2021/07/14 06:24:18;;;;;;;;;9.00;9.00;;;;;30.04;38.17;101312.28;6274553;22;8951;-78
2021/07/14 06:27:14;;;;;;;;;10.20;9.60;;;;;30.28;38.37;101306.34;6275104;22;9481;-78
2021/07/14 06:30:13;;;;;;;;;8.40;8.40;;;;;30.32;39.29;101310.69;6275076;22;8833;-78
2021/07/14 06:33:09;;;;;;;;;9.60;9.20;;;;;30.41;38.82;101310.03;6274310;22;8771;-78
2021/07/14 06:36:05;;;;;;;;;8.00;8.00;;;;;30.31;38.47;101314.81;6274046;22;8814;-78
2021/07/14 06:39:02;;;;;;;;;7.80;7.80;;;;;30.44;38.34;101304.22;6274298;22;8825;-77
2021/07/14 06:41:59;;;;;;;;;7.60;7.60;;;;;30.64;37.85;101309.72;6256126;22;8807;-77
2021/07/14 06:44:55;;;;;;;;;8.00;8.00;;;;;30.73;37.75;101300.50;6276562;22;8776;-78
2021/07/14 06:47:51;;;;;;;;;7.80;7.80;;;;;30.82;38.14;101299.81;6276374;22;8901;-78
2021/07/14 06:50:47;;;;;;;;;9.40;9.40;;;;;31.02;37.50;101303.25;6276040;22;8783;-77
2021/07/14 06:53:43;;;;;;;;;8.60;8.00;;;;;31.04;35.83;101302.78;6276088;22;8791;-77
2021/07/14 06:56:39;;;;;;;;;8.00;8.00;;;;;31.42;36.17;101312.13;6257080;22;8780;-77
2021/07/14 06:59:34;;;;;;;;;13.60;12.60;;;;;31.71;35.22;101297.63;6275974;22;8791;-77
2021/07/14 07:02:30;;;;;;;;;8.00;8.00;;;;;31.54;34.93;101305.59;6275825;22;8909;-78
2021/07/14 07:05:26;;;;;;;;;9.00;9.00;;;;;31.58;34.99;101301.78;6300345;22;8781;-78
2021/07/14 07:08:21;;;;;;;;;4.80;4.80;;;;;31.57;35.34;101308.78;6306942;22;8796;-79
2021/07/14 07:11:18;;;;;;;;;5.00;5.00;;;;;31.56;34.06;101307.97;6307360;22;9475;-79
2021/07/14 07:14:13;;;;;;;;;3.40;3.40;;;;;31.47;32.75;101311.53;6297495;22;8761;-79
2021/07/14 07:17:09;;;;;;;;;3.80;3.80;;;;;31.57;33.33;101312.44;6307159;22;8785;-78
2021/07/14 07:20:05;;;;;;;;;2.80;2.80;;;;;31.70;32.90;101304.63;6307155;22;8785;-79
2021/07/14 07:23:01;;;;;;;;;5.00;5.00;;;;;31.81;32.30;101309.97;6306754;22;8777;-80
2021/07/14 07:25:57;;;;;;;;;2.40;2.40;;;;;31.86;31.98;101308.59;6308104;22;8792;-79
2021/07/14 07:29:06;;;;;;;;;3.60;3.60;;;;;31.84;32.05;101302.53;6288089;22;8811;-77
2021/07/14 07:32:02;;;;;;;;;5.00;5.00;;;;;32.33;31.73;101308.47;6306654;22;8803;-79
2021/07/14 07:34:57;;;;;;;;;4.00;4.00;;;;;32.42;31.10;101314.25;6308101;22;8785;-79
2021/07/14 07:37:53;;;;;;;;;4.40;4.20;;;;;32.73;31.15;101302.81;6307423;22;8785;-79
2021/07/14 07:40:51;;;;;;;;;5.00;5.00;;;;;32.55;30.83;101317.84;6286142;22;8773;-79
2021/07/14 07:43:47;;;;;;;;;2.80;2.80;;;;;32.51;29.56;101314.34;6306841;22;8804;-79
2021/07/14 07:46:43;;;;;;;;;3.60;3.60;;;;;32.44;28.87;101308.09;6306653;22;8773;-78
2021/07/14 07:49:38;;;;;;;;;3.40;3.40;;;;;32.85;29.69;101304.81;6286228;22;8785;-78
2021/07/14 07:52:34;;;;;;;;;5.00;4.20;;;;;33.13;30.45;101302.03;6306370;22;8785;-78
2021/07/14 07:55:30;;;;;;;;;3.00;3.00;;;;;32.85;29.14;101296.22;6301246;22;8765;-79
2021/07/14 07:58:25;;;;;;;;;0.00;0.00;;;;;32.95;30.40;101296.25;6308271;22;8795;-79
2021/07/14 08:01:21;;;;;;;;;4.20;4.20;;;;;32.93;30.49;101288.13;6306848;22;8800;-78
2021/07/14 08:04:17;;;;;;;;;3.00;3.00;;;;;32.84;28.54;101294.59;6307061;22;8894;-78
2021/07/14 08:07:12;;;;;;;;;4.00;4.00;;;;;33.07;29.19;101313.31;6306821;22;8801;-78
2021/07/14 08:10:09;;;;;;;;;4.00;4.00;;;;;33.12;28.26;101309.81;6307015;22;8780;-78
2021/07/14 08:13:05;;;;;;;;;3.80;3.80;;;;;33.32;28.87;101297.94;6306402;22;8872;-79
2021/07/14 08:16:01;;;;;;;;;2.60;2.60;;;;;33.26;28.30;101301.91;6306480;22;8792;-79
2021/07/14 08:18:57;;;;;;;;;3.20;3.20;;;;;33.57;28.54;101299.75;6306310;22;8777;-77
2021/07/14 08:21:52;;;;;;;;;4.20;4.20;;;;;33.57;27.94;101299.75;6306253;22;8931;-77
2021/07/14 08:24:48;;;;;;;;;5.00;5.00;;;;;33.73;28.08;101292.91;6309250;22;8773;-77
2021/07/14 08:27:44;;;;;;;;;5.00;5.00;;;;;33.94;27.50;101294.84;6309033;22;8812;-77
2021/07/14 08:30:40;;;;;;;;;5.20;5.20;;;;;33.92;29.06;101288.78;6306876;22;8846;-78
2021/07/14 08:33:36;;;;;;;;;6.20;6.20;;;;;34.17;28.06;101301.19;6307709;22;8785;-78
2021/07/14 08:36:31;;;;;;;;;3.00;3.00;;;;;33.68;27.62;101299.28;6307974;22;8795;-81
2021/07/14 08:39:27;;;;;;;;;1.00;1.00;;;;;33.54;27.77;101289.25;6306491;22;8799;-79
2021/07/14 08:42:24;;;;;;;;;3.40;3.40;;;;;34.03;27.93;101293.25;6297798;22;8866;-77
2021/07/14 08:45:20;;;;;;;;;1.80;1.80;;;;;34.50;27.43;101289.81;6306401;22;8789;-77
2021/07/14 08:48:16;;;;;;;;;3.00;3.00;;;;;34.13;27.20;101289.09;6305705;22;8780;-77
2021/07/14 08:51:15;;;;;;;;;2.60;2.60;;;;;34.50;27.09;101276.25;6306017;22;8877;-79
2021/07/14 08:54:12;;;;;;;;;1.40;1.40;;;;;34.58;27.33;101279.56;6306342;22;8781;-79
2021/07/14 08:57:09;;;;;;;;;4.40;4.40;;;;;34.66;27.08;101292.34;6307235;22;8883;-78
2021/07/14 09:00:22;;;;;;;;;1.00;1.00;;;;;35.03;26.56;101287.22;6286581;22;8761;-80
2021/07/14 09:03:18;;;;;;;;;3.60;3.60;;;;;34.94;26.02;101281.53;6284535;22;8793;-78
2021/07/14 09:06:14;;;;;;;;;3.00;3.00;;;;;35.19;27.33;101282.34;6307901;22;8781;-78
2021/07/14 09:09:19;;;;;;;;;3.40;3.40;;;;;34.82;26.92;101283.31;6291145;22;8793;-80
2021/07/14 09:12:16;;;;;;;;;3.60;3.60;;;;;34.65;25.89;101287.06;6288453;22;8859;-77
2021/07/14 09:15:15;;;;;;;;;3.80;3.80;;;;;34.83;26.61;101284.13;6305837;22;8906;-77
2021/07/14 09:18:15;;;;;;;;;2.60;2.60;;;;;34.88;26.20;101274.03;6306098;22;8923;-78
2021/07/14 09:21:16;;;;;;;;;3.00;3.00;;;;;35.08;26.62;101280.81;6285422;22;8792;-77
2021/07/14 09:24:41;;;;;;;;;1.80;1.80;;;;;35.46;25.30;101269.91;6285822;22;8781;-79
2021/07/14 09:27:37;;;;;;;;;3.60;3.60;;;;;35.08;25.69;101274.28;6306667;22;9503;-79
2021/07/14 09:30:33;;;;;;;;;6.20;6.20;;;;;35.67;25.32;101267.97;6274151;22;9598;-78
2021/07/14 09:33:29;;;;;;;;;5.00;5.00;;;;;35.31;26.50;101264.84;6300167;22;8889;-79
2021/07/14 09:36:33;;;;;;;;;2.80;2.80;;;;;35.29;26.33;101258.00;6277495;22;8773;-78
2021/07/14 09:39:37;;;;;;;;;4.60;4.60;;;;;35.51;25.74;101252.75;6304130;22;9022;-79
2021/07/14 09:42:32;;;;;;;;;3.80;3.80;;;;;35.34;25.60;101265.94;6305656;22;8808;-77
2021/07/14 09:45:44;;;;;;;;;2.80;2.80;;;;;34.73;25.49;101248.88;6304686;22;8824;-76
2021/07/14 09:48:47;;;;;;;;;3.00;3.00;;;;;35.27;25.63;101252.72;6305678;22;8773;-77
2021/07/14 09:51:43;;;;;;;;;3.00;3.00;;;;;35.35;25.87;101258.91;6285735;22;8869;-78
2021/07/14 09:54:39;;;;;;;;;4.00;4.00;;;;;35.15;26.22;101258.75;6305956;22;8808;-78
2021/07/14 09:57:35;;;;;;;;;2.00;2.00;;;;;35.27;24.94;101254.81;6305413;22;8781;-79
2021/07/14 10:00:37;;;;;;;;;3.20;3.20;;;;;35.69;25.75;101254.69;6305241;22;8777;-79
2021/07/14 10:03:36;;;;;;;;;2.00;2.00;;;;;35.78;27.02;101254.59;6306557;22;8793;-78
2021/07/14 10:06:33;;;;;;;;;4.00;4.00;;;;;35.81;26.37;101258.56;6305556;22;8828;-78
2021/07/14 10:09:29;;;;;;;;;8.00;8.00;;;;;35.48;25.75;101252.94;6305417;22;8780;-78
2021/07/14 10:12:30;;;;;;;;;4.00;4.00;;;;;35.61;25.21;101271.53;6305228;22;8765;-78
2021/07/14 10:15:26;;;;;;;;;12.80;7.80;;;;;35.79;25.33;101272.66;6306943;22;8781;-78
2021/07/14 10:18:22;;;;;;;;;4.40;4.40;;;;;36.02;25.77;101273.91;6307447;22;8839;-76
2021/07/14 10:21:17;;;;;;;;;3.00;3.00;;;;;36.27;25.25;101266.75;6307703;22;8861;-79
2021/07/14 10:24:18;;;;;;;;;3.00;3.00;;;;;36.04;25.63;101272.13;6286410;22;8780;-78
2021/07/14 10:27:14;;;;;;;;;3.80;2.60;;;;;36.20;24.33;101263.00;6307197;22;8800;-78
2021/07/14 10:30:11;;;;;;;;;3.40;3.40;;;;;36.66;23.61;101270.34;6307292;22;8809;-77
2021/07/14 10:33:16;;;;;;;;;3.00;3.00;;;;;36.95;24.48;101261.63;6307392;22;8773;-78
2021/07/14 10:36:14;;;;;;;;;5.00;5.00;;;;;36.50;24.18;101263.00;6306788;22;8765;-73
2021/07/14 10:39:11;;;;;;;;;4.80;4.80;;;;;36.52;23.17;101260.44;6307050;22;8803;-72
2021/07/14 10:42:07;;;;;;;;;1.40;1.40;;;;;36.56;24.55;101265.97;6307256;22;9463;-78
2021/07/14 10:45:05;;;;;;;;;2.00;2.00;;;;;36.61;22.18;101262.38;6307325;22;8844;-78
2021/07/14 10:48:01;;;;;;;;;2.00;2.00;;;;;36.27;22.87;101256.06;6307645;22;8943;-78
2021/07/14 10:50:57;;;;;;;;;4.80;4.80;;;;;36.34;25.00;101257.72;6287050;22;8797;-79
2021/07/14 10:53:57;;;;;;;;;3.40;3.40;;;;;36.34;24.43;101257.72;6307857;22;8813;-80
2021/07/14 10:56:53;;;;;;;;;8.40;8.40;;;;;36.74;23.48;101254.22;6308050;22;8809;-80
2021/07/14 10:59:51;;;;;;;;;2.40;2.40;;;;;36.71;24.17;101252.31;6307324;22;8777;-79
2021/07/14 11:02:52;;;;;;;;;3.40;3.40;;;;;37.05;23.98;101239.25;6307738;22;8796;-78
2021/07/14 11:05:47;;;;;;;;;3.20;3.20;;;;;37.20;21.46;101242.84;6307449;22;8789;-78
2021/07/14 11:08:49;;;;;;;;;4.20;4.20;;;;;37.17;23.20;101245.94;6286181;22;8789;-79
2021/07/14 11:12:03;;;;;;;;;3.80;3.60;;;;;36.91;24.18;101238.00;6307097;22;8764;-79
2021/07/14 11:15:01;;;;;;;;;2.60;2.60;;;;;37.19;24.05;101238.38;6286194;22;8781;-78
2021/07/14 11:17:57;;;;;;;;;3.00;3.00;;;;;37.37;23.63;101248.06;6307671;22;8803;-79
2021/07/14 11:20:52;;;;;;;;;6.20;5.20;;;;;37.07;23.20;101253.16;6307226;22;8825;-79
2021/07/14 11:23:48;;;;;;;;;2.80;2.80;;;;;37.36;24.08;101252.25;6307247;22;9520;-77
2021/07/14 11:26:44;;;;;;;;;2.60;2.60;;;;;37.06;22.70;101240.81;6284980;22;8786;-80
2021/07/14 11:29:39;;;;;;;;;1.80;1.80;;;;;37.46;22.90;101242.16;6285114;22;8785;-78
2021/07/14 11:32:38;;;;;;;;;1.60;1.60;;;;;36.71;23.47;101244.47;6306682;22;9598;-76
2021/07/14 11:35:54;;;;;;;;;2.00;2.00;;;;;37.19;24.14;101234.69;6305190;22;8789;-75
2021/07/14 11:38:54;;;;;;;;;2.00;2.00;;;;;37.24;23.34;101233.97;6308246;22;8777;-77
2021/07/14 11:41:50;;;;;;;;;2.00;2.00;;;;;37.43;24.02;101237.41;6286231;22;8785;-77
2021/07/14 11:44:53;;;;;;;;;3.00;3.00;;;;;37.15;23.12;101223.38;6285342;22;8785;-76
2021/07/14 11:48:02;;;;;;;;;3.40;3.40;;;;;37.41;23.57;101228.44;6305986;22;8866;-77
2021/07/14 11:50:59;;;;;;;;;1.80;1.80;;;;;37.12;23.16;101230.16;6306945;22;8805;-77
2021/07/14 11:53:58;;;;;;;;;2.60;2.60;;;;;37.26;23.84;101226.41;6306486;22;8781;-77
2021/07/14 11:56:55;;;;;;;;;1.00;1.00;;;;;37.19;24.18;101226.84;6284956;22;8800;-77
2021/07/14 12:00:09;;;;;;;;;1.80;1.80;;;;;37.25;24.07;101233.47;6303786;22;8801;-77
2021/07/14 12:03:06;;;;;;;;;1.00;1.00;;;;;37.53;22.39;101227.28;6306418;22;8827;-77
2021/07/14 12:06:22;;;;;;;;;1.40;1.40;;;;;37.84;24.16;101220.81;6288331;22;8867;-78
2021/07/14 12:09:17;;;;;;;;;2.00;2.00;;;;;37.68;23.35;101222.22;6307334;22;8793;-78
2021/07/14 12:12:19;;;;;;;;;4.00;4.00;;;;;37.84;23.72;101212.97;6306398;22;8781;-78
2021/07/14 12:15:15;;;;;;;;;1.20;1.20;;;;;37.89;21.07;101220.09;6306421;22;8773;-78
2021/07/14 12:18:12;;;;;;;;;2.80;2.80;;;;;38.24;20.94;101208.34;6306091;22;8807;-75
2021/07/14 12:21:12;;;;;;;;;2.00;2.00;;;;;38.68;22.47;101215.78;6306465;22;8817;-76
2021/07/14 12:24:28;;;;;;;;;2.80;2.80;;;;;39.04;23.13;101217.06;6306369;22;8801;-75
2021/07/14 12:27:29;;;;;;;;;2.60;2.60;;;;;38.93;21.78;101214.88;6306358;22;8896;-76
2021/07/14 12:30:24;;;;;;;;;3.00;2.40;;;;;38.91;23.24;101213.84;6285657;22;9575;-76
2021/07/14 12:33:21;;;;;;;;;1.60;1.60;;;;;39.18;23.76;101218.19;6275524;22;8805;-77
2021/07/14 12:36:18;;;;;;;;;1.20;1.20;;;;;38.83;21.95;101221.41;6292223;22;8781;-76
2021/07/14 12:39:26;;;;;;;;;3.20;3.20;;;;;38.57;21.62;101213.59;6318469;22;8807;-76
2021/07/14 12:42:23;;;;;;;;;3.00;3.00;;;;;38.98;21.45;101215.44;6312538;22;8805;-77
2021/07/14 12:45:23;;;;;;;;;2.00;2.00;;;;;38.91;21.01;101211.72;6307448;22;8877;-76
2021/07/14 12:48:21;;;;;;;;;3.40;3.40;;;;;39.00;21.49;101215.72;6305567;22;8928;-77
2021/07/14 12:51:19;;;;;;;;;1.80;1.80;;;;;38.56;22.65;101220.66;6305654;22;8797;-77
2021/07/14 12:54:20;;;;;;;;;1.80;1.80;;;;;38.82;22.18;101216.94;6305804;22;8769;-77
2021/07/14 12:57:22;;;;;;;;;2.00;2.00;;;;;38.88;21.73;101212.78;6306009;22;8781;-77
2021/07/14 13:00:21;;;;;;;;;2.60;2.60;;;;;39.18;21.46;101212.41;6305958;22;8777;-76
2021/07/14 13:03:22;;;;;;;;;3.00;3.00;;;;;38.55;21.14;101207.53;6305582;22;8801;-77
2021/07/14 13:06:19;;;;;;;;;2.40;2.40;;;;;39.09;20.71;101201.03;6305646;22;8769;-76
2021/07/14 13:09:15;;;;;;;;;3.40;3.40;;;;;39.38;22.25;101206.44;6305721;22;8821;-77
2021/07/14 13:12:11;;;;;;;;;1.60;1.60;;;;;39.44;20.88;101207.25;6305824;22;8773;-77
2021/07/14 13:15:08;;;;;;;;;1.40;1.40;;;;;39.40;21.39;101200.13;6305749;22;8781;-77
2021/07/14 13:18:13;;;;;;;;;2.00;2.00;;;;;39.55;21.26;101200.69;6305640;22;8785;-77
2021/07/14 13:21:19;;;;;;;;;1.20;1.20;;;;;39.58;22.35;101196.81;6305857;22;8780;-77
2021/07/14 13:24:14;;;;;;;;;2.00;2.00;;;;;39.57;21.77;101198.09;6305483;22;8867;-77
2021/07/14 13:27:10;;;;;;;;;1.80;1.80;;;;;38.98;20.84;101198.09;6306968;22;8809;-77
2021/07/14 13:30:19;;;;;;;;;1.00;1.00;;;;;39.00;21.51;101190.47;6305693;22;8848;-77
2021/07/14 13:33:17;;;;;;;;;1.00;1.00;;;;;39.15;20.92;101184.53;6285335;22;8797;-77
2021/07/14 13:36:17;;;;;;;;;3.00;3.00;;;;;39.03;21.31;101177.06;6305682;22;8804;-76
2021/07/14 13:39:18;;;;;;;;;2.40;2.40;;;;;39.04;21.65;101184.47;6305420;22;8805;-77
2021/07/14 13:42:18;;;;;;;;;3.00;3.00;;;;;39.02;21.16;101178.41;6305617;22;8777;-77
2021/07/14 13:45:34;;;;;;;;;3.00;3.00;;;;;39.15;21.63;101181.63;6305361;22;8881;-78
2021/07/14 13:48:32;;;;;;;;;4.20;4.00;;;;;39.36;21.51;101177.25;6305250;22;9556;-77
2021/07/14 13:51:36;;;;;;;;;2.40;2.40;;;;;38.75;20.16;101179.84;6304853;22;8891;-76
2021/07/14 13:54:38;;;;;;;;;1.20;1.20;;;;;38.84;21.27;101165.97;6305384;22;8781;-77
2021/07/14 13:57:33;;;;;;;;;0.60;0.60;;;;;38.86;20.85;101169.13;6305744;22;8777;-75
2021/07/14 14:00:29;;;;;;;;;3.00;3.00;;;;;38.22;21.38;101172.59;6305367;22;8788;-76